Archival Weather

Sulphur Springs Muni

Sulphur Springs, Texas (KSLR)

Report from: Thursday, September 21, 2023 12:37 AM CDT
Current time: Saturday, February 24, 2024 9:44 AM CST

Current weather – Weather history – Daily summaries
Weather forecast

Temperature23.0°C (73.4°F)
Dew point19.0°C (66.2°F)
Winds 4 kts (2.1 m/s, 4.6 mph) East-Southeast (110°)
Visibility10 mi. (16.1 km)
Clouds Sky clear
Altimeter29.95 in.Hg (1014 mB)
Relative humidity78 %
Density altitude1,196 ft. (365 m)
Remarks Fully automated report
Automated weather observing station with precipitation discriminator
Flight conditions Visual Meteorological Conditions
Raw dataKSLR 210537Z AUTO 11004KT 10SM CLR 23/19 A2995 RMK AO2
An error has occurred. This application may no longer respond until reloaded. Reload 🗙